createdAt,value
2018-04-19T00:00:55.237Z,16.53
2018-04-19T00:03:23.756Z,18.80
2018-04-19T00:05:53.029Z,17.90
2018-04-19T00:08:23.128Z,16.23
2018-04-19T00:10:52.677Z,17.57
2018-04-19T00:13:22.120Z,17.37
2018-04-19T00:15:50.600Z,16.40
2018-04-19T00:18:19.095Z,18.07
2018-04-19T00:20:49.215Z,17.80
2018-04-19T00:23:17.857Z,18.03
2018-04-19T00:25:47.097Z,16.63
2018-04-19T00:28:15.608Z,17.13
2018-04-19T00:30:44.141Z,18.90
2018-04-19T00:33:13.469Z,18.27
2018-04-19T00:35:41.974Z,17.03
2018-04-19T00:38:10.458Z,21.50
2018-04-19T00:40:38.953Z,18.00
2018-04-19T00:43:07.454Z,17.87
2018-04-19T00:45:36.078Z,18.00
2018-04-19T00:48:04.234Z,18.77
2018-04-19T00:50:33.537Z,19.07
2018-04-19T00:53:09.337Z,17.17
2018-04-19T00:55:37.829Z,26.00
2018-04-19T00:58:06.356Z,18.30
2018-04-19T01:00:35.804Z,19.03
2018-04-19T01:03:04.083Z,19.23
2018-04-19T01:05:32.553Z,21.00
2018-04-19T01:08:01.073Z,19.07
2018-04-19T01:10:31.061Z,20.10
2018-04-19T01:12:59.317Z,18.13
2018-04-19T01:15:27.868Z,19.07
2018-04-19T01:17:57.108Z,19.33
2018-04-19T01:20:25.613Z,18.60
2018-04-19T01:22:54.181Z,22.40
2018-04-19T01:25:22.449Z,18.93
2018-04-19T01:27:50.937Z,17.33
2018-04-19T01:30:19.527Z,16.60
2018-04-19T01:32:48.001Z,17.70
2018-04-19T01:35:16.481Z,20.50
2018-04-19T01:37:44.978Z,19.00
2018-04-19T01:40:13.557Z,18.43
2018-04-19T01:42:42.197Z,18.20
2018-04-19T01:45:10.688Z,19.10
2018-04-19T01:47:40.085Z,18.10
2018-04-19T01:50:09.345Z,18.50
2018-04-19T01:52:37.825Z,19.60
2018-04-19T01:55:06.299Z,19.73
2018-04-19T01:57:34.799Z,18.67
2018-04-19T02:00:03.267Z,19.70
2018-04-19T02:02:31.417Z,19.27
2018-04-19T02:04:59.924Z,19.60
2018-04-19T02:07:28.429Z,20.37
2018-04-19T02:09:56.917Z,22.73
2018-04-19T02:12:25.412Z,19.00
2018-04-19T02:14:54.668Z,17.80
2018-04-19T02:17:23.205Z,20.30
2018-04-19T02:19:52.465Z,19.60
2018-04-19T02:22:21.093Z,19.67
2018-04-19T02:24:50.351Z,21.40
2018-04-19T02:27:18.836Z,19.33
2018-04-19T02:29:47.318Z,20.40
2018-04-19T02:32:15.794Z,21.03
2018-04-19T02:34:44.277Z,18.80
2018-04-19T02:37:13.002Z,20.60
2018-04-19T02:39:41.485Z,21.67
2018-04-19T02:42:10.737Z,22.50
2018-04-19T02:44:39.229Z,22.50
2018-04-19T02:47:07.813Z,22.97
2018-04-19T02:49:36.294Z,22.53
2018-04-19T02:52:05.625Z,22.47
2018-04-19T02:54:34.113Z,21.20
2018-04-19T02:57:02.621Z,22.67
2018-04-19T02:59:32.003Z,22.33
2018-04-19T03:02:00.550Z,21.47
2018-04-19T03:04:29.142Z,23.40
2018-04-19T03:06:57.710Z,22.30
2018-04-19T03:09:26.189Z,22.70
2018-04-19T03:11:54.877Z,22.93
2018-04-19T03:14:26.123Z,26.57
2018-04-19T03:16:54.811Z,24.00
2018-04-19T03:19:23.293Z,23.13
2018-04-19T03:21:51.780Z,24.27
2018-04-19T03:24:20.285Z,24.03
2018-04-19T03:26:48.775Z,23.67
2018-04-19T03:29:17.392Z,23.63
2018-04-19T03:31:46.645Z,22.23
2018-04-19T03:34:15.140Z,24.57
2018-04-19T03:36:43.724Z,24.63
2018-04-19T03:39:12.201Z,24.57
2018-04-19T03:41:40.712Z,25.43
2018-04-19T03:44:10.704Z,24.23
2018-04-19T03:46:39.269Z,25.57
2018-04-19T03:49:07.526Z,22.73
2018-04-19T03:51:36.024Z,27.27
2018-04-19T03:54:04.180Z,25.33
2018-04-19T03:56:32.657Z,24.60
2018-04-19T03:59:01.993Z,23.80
2018-04-19T04:01:30.470Z,25.73
2018-04-19T04:03:59.377Z,27.00
2018-04-19T04:06:27.864Z,25.00
2018-04-19T04:08:56.368Z,23.33
2018-04-19T04:11:24.913Z,24.67
2018-04-19T04:13:53.381Z,24.23
2018-04-19T04:16:33.324Z,24.30
2018-04-19T04:19:13.214Z,23.67
2018-04-19T04:21:53.041Z,25.30
2018-04-19T04:24:21.533Z,24.80
2018-04-19T04:26:50.025Z,24.10
2018-04-19T04:29:18.527Z,26.93
2018-04-19T04:31:47.024Z,24.50
2018-04-19T04:34:16.505Z,26.57
2018-04-19T04:36:44.981Z,26.50
2018-04-19T04:39:13.507Z,31.60
2018-04-19T04:41:42.857Z,27.30
2018-04-19T04:44:11.359Z,27.27
2018-04-19T04:46:39.854Z,26.27
2018-04-19T04:49:08.353Z,31.20
2018-04-19T04:51:36.857Z,36.40
2018-04-19T04:54:06.329Z,26.37
2018-04-19T04:56:34.658Z,38.73
2018-04-19T04:59:03.148Z,26.77
2018-04-19T05:01:31.642Z,29.80
2018-04-19T05:04:00.173Z,24.23
2018-04-19T05:06:29.200Z,24.13
2018-04-19T05:08:57.699Z,34.63
2018-04-19T05:11:25.987Z,36.20
2018-04-19T05:13:54.512Z,32.30
2018-04-19T05:16:23.439Z,41.50
2018-04-19T05:18:52.128Z,35.40
2018-04-19T05:21:20.730Z,38.23
2018-04-19T05:23:49.417Z,32.63
2018-04-19T05:26:17.904Z,32.63
2018-04-19T05:28:46.593Z,38.53
2018-04-19T05:31:15.181Z,39.90
2018-04-19T05:33:43.684Z,35.83
2018-04-19T05:36:12.331Z,35.87
2018-04-19T05:38:40.973Z,34.43
2018-04-19T05:41:10.286Z,32.20
2018-04-19T05:43:39.932Z,35.27
2018-04-19T05:46:08.481Z,37.10
2018-04-19T05:48:37.745Z,28.90
2018-04-19T05:51:06.217Z,31.73
2018-04-19T05:53:34.709Z,28.37
2018-04-19T05:56:03.285Z,26.33
2018-04-19T05:58:32.012Z,31.80
2018-04-19T06:01:01.338Z,35.70
2018-04-19T06:03:29.823Z,27.40
2018-04-19T06:05:58.489Z,26.20
2018-04-19T06:08:27.732Z,24.07
2018-04-19T06:10:55.873Z,29.60
2018-04-19T06:13:25.139Z,34.40
2018-04-19T06:15:53.622Z,29.03
2018-04-19T06:18:22.279Z,27.87
2018-04-19T06:20:50.906Z,27.80
2018-04-19T06:23:19.395Z,27.27
2018-04-19T06:25:48.441Z,23.53
2018-04-19T06:28:16.274Z,21.93
2018-04-19T06:30:45.580Z,21.03
2018-04-19T06:33:14.845Z,22.70
2018-04-19T06:35:43.393Z,21.63
2018-04-19T06:38:11.888Z,19.83
2018-04-19T06:40:40.460Z,21.43
2018-04-19T06:43:08.989Z,22.20
2018-04-19T06:45:37.531Z,22.13
2018-04-19T06:48:06.028Z,20.73
2018-04-19T06:50:34.533Z,19.53
2018-04-19T06:53:03.032Z,17.63
2018-04-19T06:55:31.942Z,18.83
2018-04-19T06:58:00.609Z,18.73
2018-04-19T07:00:29.337Z,18.17
2018-04-19T07:02:57.837Z,17.33
2018-04-19T07:05:26.409Z,15.83
2018-04-19T07:07:55.034Z,14.63
2018-04-19T07:10:23.637Z,14.00
2018-04-19T07:12:52.173Z,16.10
2018-04-19T07:15:20.869Z,17.60
2018-04-19T07:17:49.353Z,16.80
2018-04-19T07:20:17.925Z,13.77
2018-04-19T07:22:46.417Z,13.00
2018-04-19T07:25:15.037Z,12.87
2018-04-19T07:27:43.364Z,12.70
2018-04-19T07:30:11.861Z,13.93
2018-04-19T07:32:40.370Z,16.60
2018-04-19T07:35:08.862Z,14.87
2018-04-19T07:37:37.368Z,13.97
2018-04-19T07:40:06.605Z,13.10
2018-04-19T07:42:35.143Z,12.07
2018-04-19T07:45:04.420Z,17.17
2018-04-19T07:47:32.970Z,12.73
2018-04-19T07:50:01.465Z,12.10
2018-04-19T07:52:30.041Z,12.50
2018-04-19T07:54:58.536Z,11.83
2018-04-19T07:57:27.100Z,11.40
2018-04-19T07:59:55.606Z,10.40
2018-04-19T08:02:24.079Z,14.10
2018-04-19T08:04:52.673Z,9.77
2018-04-19T08:07:21.303Z,14.43
2018-04-19T08:09:50.649Z,13.53
2018-04-19T08:12:19.220Z,11.07
2018-04-19T08:14:47.876Z,12.40
2018-04-19T08:17:17.136Z,11.57
2018-04-19T08:19:45.743Z,15.80
2018-04-19T08:22:14.294Z,10.77
2018-04-19T08:24:42.843Z,10.73
2018-04-19T08:27:12.102Z,9.50
2018-04-19T08:29:40.669Z,9.77
2018-04-19T08:32:09.226Z,9.53
2018-04-19T08:34:37.705Z,9.50
2018-04-19T08:37:05.972Z,11.17
2018-04-19T08:39:35.207Z,9.83
2018-04-19T08:42:03.712Z,16.90
2018-04-19T08:44:32.215Z,9.07
2018-04-19T08:47:00.877Z,9.43
2018-04-19T08:49:29.386Z,9.40
2018-04-19T08:51:58.522Z,8.47
2018-04-19T08:54:27.084Z,8.80
2018-04-19T08:56:56.337Z,6.70
2018-04-19T08:59:24.961Z,8.60
2018-04-19T09:01:54.204Z,7.03
2018-04-19T09:04:22.694Z,11.03
2018-04-19T09:06:51.367Z,7.23
2018-04-19T09:09:19.838Z,7.23
2018-04-19T09:11:48.318Z,6.97
2018-04-19T09:14:16.921Z,6.67
2018-04-19T09:16:45.492Z,8.33
2018-04-19T09:19:13.960Z,5.80
2018-04-19T09:21:43.201Z,7.33
2018-04-19T09:24:11.676Z,5.40
2018-04-19T09:26:40.285Z,4.77
2018-04-19T09:29:08.970Z,7.67
2018-04-19T09:31:37.456Z,4.80
2018-04-19T09:34:06.968Z,5.80
2018-04-19T09:36:36.685Z,8.07
2018-04-19T09:39:05.925Z,6.50
2018-04-19T09:41:35.418Z,5.30
2018-04-19T09:44:04.990Z,4.40
2018-04-19T09:46:34.720Z,8.77
2018-04-19T09:49:04.551Z,4.83
2018-04-19T09:51:34.036Z,5.07
2018-04-19T09:54:03.151Z,5.67
2018-04-19T09:56:32.658Z,4.67
2018-04-19T09:59:07.656Z,5.63
2018-04-19T10:01:42.727Z,5.17
2018-04-19T10:04:13.827Z,7.70
2018-04-19T10:06:43.301Z,6.73
2018-04-19T10:09:12.797Z,4.17
2018-04-19T10:11:42.289Z,7.13
2018-04-19T10:14:11.809Z,4.20
2018-04-19T10:16:41.065Z,5.30
2018-04-19T10:19:09.551Z,5.80
2018-04-19T10:21:37.875Z,4.40
2018-04-19T10:24:07.175Z,5.50
2018-04-19T10:26:36.421Z,4.83
2018-04-19T10:29:04.897Z,4.27
2018-04-19T10:31:33.393Z,5.63
2018-04-19T10:34:01.873Z,5.60
2018-04-19T10:36:30.409Z,10.97
2018-04-19T10:38:59.822Z,5.17
2018-04-19T10:41:28.313Z,5.33
2018-04-19T10:43:56.910Z,9.70
2018-04-19T10:46:25.449Z,5.73
2018-04-19T10:48:54.701Z,5.30
2018-04-19T10:51:23.172Z,5.67
2018-04-19T10:53:51.647Z,5.00
2018-04-19T10:56:21.257Z,7.70
2018-04-19T10:58:50.742Z,6.80
2018-04-19T11:01:20.243Z,7.43
2018-04-19T11:03:49.501Z,9.60
2018-04-19T11:06:18.865Z,5.53
2018-04-19T11:08:47.358Z,5.77
2018-04-19T11:11:15.942Z,5.57
2018-04-19T11:13:44.635Z,5.93
2018-04-19T11:16:13.144Z,5.53
2018-04-19T11:18:41.633Z,6.00
2018-04-19T11:21:10.180Z,6.93
2018-04-19T11:23:38.670Z,7.13
2018-04-19T11:26:07.188Z,7.83
2018-04-19T11:28:35.738Z,7.27
2018-04-19T11:31:04.201Z,9.10
2018-04-19T11:33:32.716Z,9.20
2018-04-19T11:36:01.202Z,6.63
2018-04-19T11:38:29.700Z,8.30
2018-04-19T11:40:58.970Z,8.40
2018-04-19T11:43:27.465Z,8.07
2018-04-19T11:45:55.932Z,8.33
2018-04-19T11:48:24.493Z,10.80
2018-04-19T11:50:53.725Z,8.80
2018-04-19T11:53:22.220Z,9.37
2018-04-19T11:55:51.839Z,9.10
2018-04-19T11:58:21.329Z,10.07
2018-04-19T12:00:51.041Z,9.23
2018-04-19T12:03:20.629Z,11.57
2018-04-19T12:05:50.183Z,7.93
2018-04-19T12:08:19.672Z,10.87
2018-04-19T12:10:49.208Z,7.00
2018-04-19T12:13:18.726Z,8.27
2018-04-19T12:15:48.012Z,9.40
2018-04-19T12:18:17.695Z,8.73
2018-04-19T12:20:47.208Z,10.03
2018-04-19T12:23:16.470Z,10.90
2018-04-19T12:25:45.993Z,9.53
2018-04-19T12:28:15.468Z,9.67
2018-04-19T12:30:44.994Z,13.17
2018-04-19T12:33:14.482Z,14.43
2018-04-19T12:35:43.964Z,9.83
2018-04-19T12:38:13.420Z,9.70
2018-04-19T12:40:42.922Z,17.67
2018-04-19T12:43:12.421Z,12.40
2018-04-19T12:45:41.937Z,13.83
2018-04-19T12:48:11.430Z,12.50
2018-04-19T12:50:40.917Z,10.53
2018-04-19T12:53:10.445Z,11.60
2018-04-19T12:55:39.984Z,10.47
2018-04-19T12:58:09.485Z,15.00
2018-04-19T13:00:38.983Z,12.33
2018-04-19T13:03:08.470Z,10.47
2018-04-19T13:05:38.040Z,11.13
2018-04-19T13:08:07.540Z,12.73
2018-04-19T13:10:37.049Z,11.20
2018-04-19T13:13:06.545Z,12.00
2018-04-19T13:15:36.072Z,11.90
2018-04-19T13:18:05.289Z,11.50
2018-04-19T13:20:34.940Z,13.40
2018-04-19T13:23:04.448Z,14.90
2018-04-19T13:25:33.924Z,13.00
2018-04-19T13:28:03.555Z,13.43
2018-04-19T13:30:33.077Z,13.60
2018-04-19T13:33:02.569Z,12.97
2018-04-19T13:35:32.223Z,14.90
2018-04-19T13:38:01.749Z,13.37
2018-04-19T13:40:31.268Z,16.50
2018-04-19T13:43:00.755Z,13.53
2018-04-19T13:45:30.338Z,14.60
2018-04-19T13:47:59.820Z,14.20
2018-04-19T13:50:29.395Z,15.90
2018-04-19T13:52:58.885Z,11.70
2018-04-19T13:55:28.452Z,13.30
2018-04-19T13:57:58.016Z,13.97
2018-04-19T14:00:27.565Z,16.23
2018-04-19T14:02:57.081Z,12.90
2018-04-19T14:05:26.346Z,13.73
2018-04-19T14:07:56.095Z,17.00
2018-04-19T14:10:25.661Z,13.60
2018-04-19T14:12:55.198Z,13.93
2018-04-19T14:15:24.688Z,15.13
2018-04-19T14:17:54.230Z,14.13
2018-04-19T14:20:23.731Z,11.30
2018-04-19T14:22:53.212Z,14.33
2018-04-19T14:25:22.751Z,11.37
2018-04-19T14:27:52.294Z,16.57
2018-04-19T14:30:21.833Z,13.67
2018-04-19T14:32:51.339Z,10.83
2018-04-19T14:35:20.845Z,11.77
2018-04-19T14:37:50.360Z,13.03
2018-04-19T14:40:19.857Z,12.87
2018-04-19T14:42:49.636Z,13.40
2018-04-19T14:45:19.120Z,12.23
2018-04-19T14:47:48.637Z,10.07
2018-04-19T14:50:17.881Z,13.10
2018-04-19T14:52:47.421Z,11.30
2018-04-19T14:55:17.163Z,10.70
2018-04-19T14:57:46.807Z,11.60
2018-04-19T15:00:16.488Z,16.23
2018-04-19T15:02:46.004Z,14.47
2018-04-19T15:05:15.492Z,11.00
2018-04-19T15:07:45.028Z,11.23
2018-04-19T15:10:14.371Z,10.40
2018-04-19T15:12:43.844Z,11.40
2018-04-19T15:15:13.357Z,10.27
2018-04-19T15:17:42.948Z,11.53
2018-04-19T15:20:12.452Z,10.90
2018-04-19T15:22:41.933Z,10.60
2018-04-19T15:25:11.433Z,9.93
2018-04-19T15:27:40.928Z,11.83
2018-04-19T15:30:10.412Z,9.60
2018-04-19T15:32:39.930Z,8.37
2018-04-19T15:35:09.401Z,8.27
2018-04-19T15:37:38.888Z,8.70
2018-04-19T15:40:08.461Z,9.97
2018-04-19T15:42:37.980Z,11.23
2018-04-19T15:45:07.488Z,6.67
2018-04-19T15:47:37.012Z,7.67
2018-04-19T15:50:06.493Z,7.40
2018-04-19T15:52:36.050Z,12.60
2018-04-19T15:55:05.765Z,7.80
2018-04-19T15:57:35.405Z,12.83
2018-04-19T16:00:04.581Z,8.13
2018-04-19T16:02:34.133Z,10.87
2018-04-19T16:05:03.848Z,12.00
2018-04-19T16:07:33.339Z,11.20
2018-04-19T16:10:03.012Z,11.67
2018-04-19T16:12:32.556Z,9.60
2018-04-19T16:15:02.118Z,8.43
2018-04-19T16:17:31.636Z,7.97
2018-04-19T16:20:01.122Z,8.00
2018-04-19T16:22:30.631Z,7.10
2018-04-19T16:25:00.124Z,8.57
2018-04-19T16:27:29.633Z,8.50
2018-04-19T16:29:59.167Z,8.50
2018-04-19T16:32:28.664Z,10.63
2018-04-19T16:34:57.927Z,7.57
2018-04-19T16:37:27.437Z,8.77
2018-04-19T16:39:57.034Z,6.20
2018-04-19T16:42:26.284Z,6.73
2018-04-19T16:44:55.598Z,8.27
2018-04-19T16:47:25.152Z,6.10
2018-04-19T16:49:54.811Z,11.33
2018-04-19T16:52:24.291Z,6.67
2018-04-19T16:54:53.840Z,6.07
2018-04-19T16:57:23.336Z,9.30
2018-04-19T16:59:52.832Z,11.33
2018-04-19T17:02:22.312Z,12.37
2018-04-19T17:04:51.569Z,5.50
2018-04-19T17:07:21.038Z,6.73
2018-04-19T17:09:50.549Z,9.03
2018-04-19T17:12:20.050Z,6.83
2018-04-19T17:14:49.544Z,5.07
2018-04-19T17:17:19.024Z,10.30
2018-04-19T17:19:48.541Z,7.83
2018-04-19T17:22:18.041Z,7.73
2018-04-19T17:24:47.556Z,8.90
2018-04-19T17:27:17.117Z,7.20
2018-04-19T17:29:46.605Z,6.23
2018-04-19T17:32:16.101Z,7.43
2018-04-19T17:34:45.632Z,7.97
2018-04-19T17:37:15.138Z,6.50
2018-04-19T17:39:44.663Z,7.83
2018-04-19T17:42:14.168Z,6.97
2018-04-19T17:44:43.729Z,7.57
2018-04-19T17:47:13.244Z,6.87
2018-04-19T17:49:42.731Z,8.13
2018-04-19T17:52:12.021Z,8.83
2018-04-19T17:54:41.549Z,7.00
2018-04-19T17:57:11.258Z,12.33
2018-04-19T17:59:40.780Z,7.07
2018-04-19T18:02:10.341Z,6.43
2018-04-19T18:04:39.890Z,6.20
2018-04-19T18:07:09.421Z,7.77
2018-04-19T18:09:38.922Z,7.20
2018-04-19T18:12:08.413Z,6.77
2018-04-19T18:14:37.956Z,8.10
2018-04-19T18:17:07.448Z,6.60
2018-04-19T18:19:37.005Z,10.60
2018-04-19T18:22:06.580Z,6.13
2018-04-19T18:24:36.352Z,8.33
2018-04-19T18:27:05.816Z,6.53
2018-04-19T18:29:35.414Z,9.63
2018-04-19T18:32:04.888Z,10.43
2018-04-19T18:34:34.384Z,7.17
2018-04-19T18:37:03.980Z,7.97
2018-04-19T18:39:33.481Z,8.90
2018-04-19T18:42:02.984Z,9.57
2018-04-19T18:44:32.538Z,7.77
2018-04-19T18:47:02.062Z,8.47
2018-04-19T18:49:31.589Z,8.77
2018-04-19T18:52:01.113Z,8.87
2018-04-19T18:54:30.946Z,8.13
2018-04-19T18:57:00.452Z,6.97
2018-04-19T18:59:29.940Z,8.93
2018-04-19T19:01:59.445Z,12.57
2018-04-19T19:04:29.060Z,6.80
2018-04-19T19:06:58.565Z,10.43
2018-04-19T19:09:28.113Z,8.30
2018-04-19T19:11:57.718Z,10.10
2018-04-19T19:14:27.201Z,10.40
2018-04-19T19:16:56.833Z,8.50
2018-04-19T19:19:32.055Z,8.33
2018-04-19T19:22:01.603Z,8.20
2018-04-19T19:24:31.129Z,11.43
2018-04-19T19:27:00.637Z,7.50
2018-04-19T19:29:30.130Z,7.63
2018-04-19T19:31:59.650Z,7.47
2018-04-19T19:34:29.095Z,10.20
2018-04-19T19:36:58.587Z,8.10
2018-04-19T19:39:28.083Z,9.20
2018-04-19T19:41:57.348Z,8.07
2018-04-19T19:44:26.873Z,9.93
2018-04-19T19:46:56.124Z,7.60
2018-04-19T19:49:25.637Z,8.73
2018-04-19T19:51:55.191Z,6.93
2018-04-19T19:54:24.939Z,7.17
2018-04-19T19:56:54.550Z,13.10
2018-04-19T19:59:24.046Z,11.63
2018-04-19T20:01:53.585Z,6.63
2018-04-19T20:04:23.092Z,12.67
2018-04-19T20:06:52.620Z,16.00
2018-04-19T20:09:22.121Z,13.63
2018-04-19T20:11:51.784Z,15.43
2018-04-19T20:14:21.286Z,23.43
2018-04-19T20:16:50.803Z,15.17
2018-04-19T20:19:20.293Z,9.73
2018-04-19T20:21:49.867Z,14.10
2018-04-19T20:24:19.413Z,16.37
2018-04-19T20:26:49.087Z,18.43
2018-04-19T20:29:18.640Z,17.97
2018-04-19T20:31:48.145Z,11.40
2018-04-19T20:34:17.689Z,11.27
2018-04-19T20:36:47.191Z,12.03
2018-04-19T20:39:16.732Z,13.70
2018-04-19T20:41:46.294Z,14.90
2018-04-19T20:44:15.806Z,9.27
2018-04-19T20:46:45.338Z,14.73
2018-04-19T20:49:14.844Z,8.57
2018-04-19T20:51:44.342Z,12.27
2018-04-19T20:54:13.833Z,9.40
2018-04-19T20:56:43.337Z,7.67
2018-04-19T20:59:12.852Z,18.00
2018-04-19T21:01:42.363Z,9.00
2018-04-19T21:04:11.861Z,11.03
2018-04-19T21:06:41.164Z,9.03
2018-04-19T21:09:10.644Z,12.10
2018-04-19T21:11:40.141Z,9.27
2018-04-19T21:14:09.764Z,11.50
2018-04-19T21:16:39.116Z,9.37
2018-04-19T21:19:08.752Z,12.10
2018-04-19T21:21:38.255Z,12.00
2018-04-19T21:24:07.753Z,12.73
2018-04-19T21:26:37.321Z,8.97
2018-04-19T21:29:06.800Z,10.03
2018-04-19T21:31:36.375Z,9.50
2018-04-19T21:34:05.664Z,8.60
2018-04-19T21:36:34.932Z,10.80
2018-04-19T21:39:04.147Z,9.43
2018-04-19T21:41:33.800Z,11.27
2018-04-19T21:44:03.300Z,12.30
2018-04-19T21:46:32.789Z,11.00
2018-04-19T21:49:02.311Z,8.53
2018-04-19T21:51:31.964Z,8.80
2018-04-19T21:54:01.475Z,9.00
2018-04-19T21:56:30.980Z,9.13
2018-04-19T21:59:00.453Z,9.50
2018-04-19T22:01:29.964Z,7.73
2018-04-19T22:03:59.460Z,12.90
2018-04-19T22:06:28.952Z,13.33
2018-04-19T22:08:58.441Z,9.50
2018-04-19T22:11:27.969Z,8.90
2018-04-19T22:13:57.475Z,9.10
2018-04-19T22:16:26.997Z,8.20
2018-04-19T22:18:56.526Z,8.30
2018-04-19T22:21:26.048Z,9.77
2018-04-19T22:23:55.556Z,14.50
2018-04-19T22:26:25.165Z,9.53
2018-04-19T22:28:54.669Z,12.40
2018-04-19T22:31:24.192Z,12.40
2018-04-19T22:33:53.673Z,11.70
2018-04-19T22:36:23.152Z,9.83
2018-04-19T22:38:52.717Z,19.20
2018-04-19T22:41:22.245Z,10.17
2018-04-19T22:43:51.756Z,9.90
2018-04-19T22:46:21.233Z,9.73
2018-04-19T22:48:50.736Z,10.83
2018-04-19T22:51:20.020Z,12.43
2018-04-19T22:53:49.589Z,11.40
2018-04-19T22:56:19.138Z,9.93
2018-04-19T22:58:48.684Z,11.03
2018-04-19T23:01:18.171Z,10.73
2018-04-19T23:03:47.826Z,10.30
2018-04-19T23:06:17.309Z,11.80
2018-04-19T23:08:46.801Z,14.27
2018-04-19T23:11:16.303Z,11.63
2018-04-19T23:13:45.800Z,13.37
2018-04-19T23:16:15.296Z,14.33
2018-04-19T23:18:44.853Z,9.90
2018-04-19T23:21:14.354Z,11.10
2018-04-19T23:23:43.829Z,9.80
2018-04-19T23:26:13.299Z,9.33
2018-04-19T23:28:42.796Z,10.97
2018-04-19T23:31:12.294Z,14.30
2018-04-19T23:33:41.783Z,11.97
2018-04-19T23:36:11.044Z,11.40
2018-04-19T23:38:40.529Z,10.37
2018-04-19T23:41:10.133Z,10.40
2018-04-19T23:43:39.642Z,10.37
2018-04-19T23:46:09.132Z,12.17
2018-04-19T23:48:38.638Z,11.50
2018-04-19T23:51:08.149Z,9.93
2018-04-19T23:53:37.640Z,10.77
2018-04-19T23:56:07.133Z,15.60
2018-04-19T23:58:36.624Z,12.87
